KBCK

Black River Falls Area Airport

Black River Falls, Wisconsin, USA
METAR KBCK 250515Z AUTO 00000KT 10SM SCT080 21/17 A2995 RMK AO2 T02050168
Observed Flight Rules
May-25 @ 05:15 UTC (9 minutes ago) Visual Flight Rules
Visibility Clouds
10 miles
  • Scattered at 8,000' AGL
Temperatures Readings
Current 21°C / 70°F
Dewpoint 17°C / 63°F
Humidity 78%
Altimeter 29.95" Hg
Pressure 1014 hPa
Elevation 255
METAR KBCK 250515Z AUTO 00000KT 10SM SCT080 21/17 A2995 RMK AO2 T02050168
Observed Flight Rules
May-25 @ 05:15 UTC
(9 minutes ago)
VFR
Clouds
  • Scattered at 8,000' AGL
Temperature Dewpoint
21°C / 70°F 17°C / 63°F
Humidity Altimeter Pressure
78% 29.95" Hg 1014 hPa